• Join FlightAware (Why Join?)
  • Login
  • US Flag 
02:15AM EDT


 

Airport Tracker/Info


-or-


 

Live Flight TrackerFlight Track Log ✈ JIA2481 ✈ 20-Apr-2012 ✈ KCLT - KXNA

Flight Track Log - Related Links

Times and Time Zones

All times are in EDT time to prevent confusion due to time zone crossing. See the JIA2481 flight status page for this flight to view local times or setup timezone preferences in your user account.

Time Position Orientation Groundspeed Altitude Reporting Facility
EDT Latitude Longitude Course Direction KTS MPH feet Rate Location/Type
11:07AM 35.2185 -80.9789 153° Southeast  Level FlightAware Approximate
11:08AM 35.2377 -81.0983 121° Southeast  Level FlightAware Approximate
11:09AM 35.1597 -80.9419 251° West 189 217 2,800  Level Atlanta Center
11:10AM 35.1308 -81.0419 273° West 267 307 5,700 2,220 Climbing Atlanta Center
11:11AM 35.1353 -81.1333 273° West 267 307 8,300 2,280 Climbing Atlanta Center
11:12AM 35.1394 -81.2272 272° West 280 322 10,300 1,800 Climbing Atlanta Center
11:13AM 35.1419 -81.3336 273° West 303 349 11,900 1,560 Climbing Atlanta Center
11:14AM 35.1464 -81.4531 269° West 318 366 13,500 1,500 Climbing Atlanta Center
11:15AM 35.1447 -81.5697 264° West 332 382 15,000 1,500 Climbing Atlanta Center
11:16AM 35.1344 -81.6844 265° West 338 389 16,500 1,440 Climbing Atlanta Center
11:17AM 35.1261 -81.8042 266° West 354 407 17,900 1,500 Climbing Atlanta Center
11:18AM 35.1200 -81.9236 264° West 354 407 19,500 1,500 Climbing Atlanta Center
11:19AM 35.1094 -82.0406 263° West 348 400 21,000 1,500 Climbing Atlanta Center
11:20AM 35.0986 -82.1550 264° West 353 406 22,500 1,260 Climbing Atlanta Center
11:21AM 35.0900 -82.2594 284° West 353 406 23,600 1,020 Climbing Atlanta Center
11:22AM 35.1144 -82.3756 286° West 347 399 24,600 1,020 Climbing Atlanta Center
11:23AM 35.1408 -82.4869 289° West 347 399 25,700 960 Climbing Atlanta Center
11:24AM 35.1714 -82.5981 289° West 352 405 26,600 600 Climbing Atlanta Center
11:25AM 35.2083 -82.7297 286° West 362 417 27,000 600 Climbing Atlanta Center
11:26AM 35.2369 -82.8539 287° West 362 417 27,800 720 Climbing Atlanta Center
11:27AM 35.2650 -82.9678 287° West 375 432 28,500 720 Climbing Atlanta Center
11:28AM 35.2972 -83.0947 288° West 382 440 29,300 720 Climbing Atlanta Center
11:29AM 35.3294 -83.2139 286° West 382 440 30,000 600 Climbing Atlanta Center
11:30AM 35.3594 -83.3411 288° West 377 434 30,600 540 Climbing Atlanta Center
11:31AM 35.3914 -83.4631 286° West 377 434 31,100 480 Climbing Atlanta Center
11:32AM 35.4211 -83.5928 288° West 382 440 31,600 360 Climbing Atlanta Center
11:33AM 35.4550 -83.7200 287° West 382 440 31,900 180 Climbing Atlanta Center
11:34AM 35.4867 -83.8500 286° West 387 445 32,000  Climbing Atlanta Center
11:35AM 35.5181 -83.9853 287° West 399 459 32,000  Level Atlanta Center
11:36AM 35.5492 -84.1128 286° West 399 459 32,000  Level Atlanta Center
11:37AM 35.5803 -84.2431 286° West 394 453 32,000  Level Atlanta Center
11:38AM 35.6114 -84.3733 286° West 394 453 32,000  Level Atlanta Center
11:39AM 35.6422 -84.5064 286° West 394 453 32,000  Level Atlanta Center
11:41AM 35.7133 -84.8114 284° West 410 472 32,000  Level Memphis Center
11:42AM 35.7347 -84.9175 287° West 410 472 32,000  Level Memphis Center
11:43AM 35.7703 -85.0636 287° West 410 472 32,000  Level Memphis Center
11:44AM 35.8031 -85.1944 286° West 410 472 32,000  Level Memphis Center
11:45AM 35.8333 -85.3256 286° West 410 472 32,000  Level Memphis Center
11:46AM 35.8636 -85.4569 285° West 410 472 32,000  Level Memphis Center
11:47AM 35.8917 -85.5886 287° West 410 472 32,000  Level Memphis Center
11:48AM 35.9239 -85.7225 285° West 410 472 32,000  Level Memphis Center
11:49AM 35.9564 -85.8694 286° West 410 472 32,000  Level Memphis Center
11:50AM 35.9861 -86.0011 286° West 410 472 32,000  Level Memphis Center
11:51AM 36.0158 -86.1331 284° West 405 466 32,000  Level Memphis Center
11:52AM 36.0431 -86.2653 286° West 405 466 32,000  Level Memphis Center
11:53AM 36.0744 -86.3997 284° West 405 466 32,000  Level Memphis Center
11:54AM 36.1017 -86.5319 286° West 405 466 32,000  Level Memphis Center
11:55AM 36.1281 -86.6489 275° West 405 466 32,000  Level Memphis Center
11:56AM 36.1383 -86.7847 273° West 405 466 32,000  Level Memphis Center
11:57AM 36.1442 -86.9206 274° West 400 460 32,000  Level Memphis Center
11:58AM 36.1525 -87.0694 274° West 400 460 32,000  Level Memphis Center
11:59AM 36.1600 -87.2003 273° West 400 460 32,000  Level Memphis Center
12:00PM 36.1656 -87.3361 274° West 400 460 32,000  Level Memphis Center
12:01PM 36.1728 -87.4644 273° West 400 460 32,000  Level Memphis Center
12:02PM 36.1778 -87.5956 274° West 388 447 32,000  Level Memphis Center
12:03PM 36.1847 -87.7264 273° West 381 438 32,000  Level Memphis Center
12:04PM 36.1897 -87.8600 274° West 386 444 32,000  Level Memphis Center
12:05PM 36.1961 -87.9756 271° West 379 436 32,000  Level Memphis Center
12:06PM 36.1986 -88.1039 276° West 384 442 32,000  Level Memphis Center
12:07PM 36.2094 -88.2425 272° West 377 434 32,000  Level Memphis Center
12:08PM 36.2136 -88.3736 271° West 377 434 32,000  Level Memphis Center
12:09PM 36.2156 -88.5072 273° West 382 440 32,000  Level Memphis Center
12:10PM 36.2217 -88.6383 272° West 382 440 32,000  Level Memphis Center
12:11PM 36.2256 -88.7694 272° West 382 440 32,000  Level Memphis Center
12:12PM 36.2292 -88.9033 272° West 387 445 32,000  Level Memphis Center
12:13PM 36.2328 -89.0369 272° West 387 445 32,000  Level Memphis Center
12:14PM 36.2364 -89.1733 270° West 387 445 32,000  Level Memphis Center
12:15PM 36.2356 -89.3097 273° West 387 445 32,000  Level Memphis Center
12:16PM 36.2408 -89.4461 272° West 398 458 32,000  Level Memphis Center
12:17PM 36.2436 -89.5567 272° West 404 465 32,000  Level Memphis Center
12:18PM 36.2486 -89.7033 272° West 404 465 32,000  Level Memphis Center
12:19PM 36.2533 -89.8397 273° West 404 465 32,000  Level Memphis Center
12:20PM 36.2581 -89.9683 271° West 398 458 32,000  Level Memphis Center
12:21PM 36.2606 -90.1047 271° West 398 458 32,000  Level Memphis Center
12:22PM 36.2628 -90.2361 271° West 398 458 32,000  Level Memphis Center
12:23PM 36.2650 -90.3725 272° West 398 458 32,000  Level Memphis Center
12:24PM 36.2689 -90.5036 271° West 398 458 32,000  Level Memphis Center
12:25PM 36.2708 -90.6350 271° West 393 452 32,000  Level Memphis Center
12:26PM 36.2725 -90.7689 270° West 393 452 32,000  Level Memphis Center
12:27PM 36.2722 -90.9053 272° West 393 452 32,000  Level Memphis Center
12:28PM 36.2756 -91.0392 272° West 393 452 32,000  Level Memphis Center
12:29PM 36.2789 -91.1706 271° West 393 452 32,000 -420 Level Memphis Center
12:30PM 36.2800 -91.3069 269° West 393 452 31,200 -900 Descending Memphis Center
12:31PM 36.2789 -91.4458 273° West 398 458 30,300 -1,020 Descending Memphis Center
12:32PM 36.2839 -91.5850 270° West 404 465 29,200 -1,080 Descending Memphis Center
12:33PM 36.2847 -91.7242 271° West 404 465 28,200 -1,020 Descending Memphis Center
12:34PM 36.2872 -91.8556 271° West 399 459 27,200 -1,020 Descending Memphis Center
12:35PM 36.2897 -91.9867 270° West 394 453 26,200 -1,020 Descending Memphis Center
12:36PM 36.2900 -92.1233 270° West 394 453 25,200 -1,020 Descending Memphis Center
12:37PM 36.2903 -92.2519 269° West 388 447 24,200 -1,020 Descending Memphis Center
12:38PM 36.2883 -92.3808 271° West 383 441 23,200 -1,020 Descending Memphis Center
12:39PM 36.2903 -92.5069 271° West 383 441 22,200 -1,020 Descending Memphis Center
12:40PM 36.2922 -92.6331 270° West 383 441 21,200 -1,020 Descending Memphis Center
12:41PM 36.2919 -92.7594 269° West 378 435 20,200 -1,020 Descending Memphis Center
12:42PM 36.2894 -92.8803 270° West 367 422 19,200 -1,020 Descending Memphis Center
12:43PM 36.2892 -93.0014 271° West 361 415 18,200 -960 Descending Memphis Center
12:44PM 36.2906 -93.1250 270° West 361 415 17,300 -960 Descending Memphis Center
12:45PM 36.2900 -93.2433 270° West 356 410 16,300 -660 Descending Memphis Center
12:46PM 36.2892 -93.3617 270° West 350 403 16,000 -900 Descending Memphis Center
12:47PM 36.2886 -93.4775 267° West 344 396 14,600 -1,680 Descending Memphis Center
12:48PM 36.2836 -93.5933 254° West 344 396 12,700 -1,860 Descending Memphis Center
12:49PM 36.2578 -93.7028 254° West 344 396 10,900 -1,620 Descending Memphis Center
12:50PM 36.2339 -93.8047 253° West 328 377 9,500 -1,620 Descending Memphis Center
12:51PM 36.2128 -93.8889 251° West 296 341 7,700 -1,800 Descending Memphis Center
12:52PM 36.1872 -93.9803 254° West 281 323 5,900 -1,320 Descending Memphis Center
12:53PM 36.1683 -94.0617 249° West 271 312 5,100 -900 Descending Memphis Center
12:54PM 36.1406 -94.1506 257° West 271 312 4,100 -600 Descending Memphis Center
12:55PM 36.1256 -94.2319 257° West 249 287 3,900 -240 Descending Memphis Center